sensor_id;sensor_type;location;lat;lon;timestamp;P1;durP1;ratioP1;P2;durP2;ratioP2
10894;SDS011;5500;49.886;8.074;2023-07-28T00:00:02;4.13;;;2.50;;
10894;SDS011;5500;49.886;8.074;2023-07-28T00:02:30;4.80;;;2.47;;
10894;SDS011;5500;49.886;8.074;2023-07-28T00:04:58;2.50;;;1.87;;
10894;SDS011;5500;49.886;8.074;2023-07-28T00:07:27;2.80;;;2.17;;
10894;SDS011;5500;49.886;8.074;2023-07-28T00:09:55;2.63;;;2.20;;
10894;SDS011;5500;49.886;8.074;2023-07-28T00:12:23;3.30;;;2.47;;
10894;SDS011;5500;49.886;8.074;2023-07-28T00:14:52;4.20;;;2.10;;
10894;SDS011;5500;49.886;8.074;2023-07-28T00:17:20;2.60;;;2.07;;
10894;SDS011;5500;49.886;8.074;2023-07-28T00:19:49;2.73;;;2.23;;
10894;SDS011;5500;49.886;8.074;2023-07-28T00:22:16;2.33;;;2.10;;
10894;SDS011;5500;49.886;8.074;2023-07-28T00:24:46;3.43;;;2.17;;
10894;SDS011;5500;49.886;8.074;2023-07-28T00:27:14;3.77;;;2.83;;
10894;SDS011;5500;49.886;8.074;2023-07-28T00:29:42;3.27;;;2.60;;
10894;SDS011;5500;49.886;8.074;2023-07-28T00:32:11;2.90;;;2.53;;
10894;SDS011;5500;49.886;8.074;2023-07-28T00:34:38;3.20;;;2.30;;
10894;SDS011;5500;49.886;8.074;2023-07-28T00:37:06;2.80;;;2.30;;
10894;SDS011;5500;49.886;8.074;2023-07-28T00:39:34;2.43;;;2.23;;
10894;SDS011;5500;49.886;8.074;2023-07-28T00:42:02;2.40;;;2.10;;
10894;SDS011;5500;49.886;8.074;2023-07-28T00:44:30;7.27;;;2.63;;
10894;SDS011;5500;49.886;8.074;2023-07-28T00:46:58;3.20;;;2.20;;
10894;SDS011;5500;49.886;8.074;2023-07-28T00:49:27;2.00;;;1.90;;
10894;SDS011;5500;49.886;8.074;2023-07-28T00:51:55;3.30;;;2.20;;
10894;SDS011;5500;49.886;8.074;2023-07-28T00:54:23;2.20;;;1.90;;
10894;SDS011;5500;49.886;8.074;2023-07-28T00:56:51;3.03;;;2.10;;
10894;SDS011;5500;49.886;8.074;2023-07-28T00:59:19;2.50;;;2.30;;
10894;SDS011;5500;49.886;8.074;2023-07-28T01:01:47;2.50;;;2.03;;
10894;SDS011;5500;49.886;8.074;2023-07-28T01:04:15;5.03;;;2.20;;
10894;SDS011;5500;49.886;8.074;2023-07-28T01:06:46;2.37;;;2.17;;
10894;SDS011;5500;49.886;8.074;2023-07-28T01:09:18;4.63;;;2.00;;
10894;SDS011;5500;49.886;8.074;2023-07-28T01:11:55;3.43;;;2.23;;
10894;SDS011;5500;49.886;8.074;2023-07-28T01:14:22;3.07;;;1.77;;
10894;SDS011;5500;49.886;8.074;2023-07-28T01:16:50;2.30;;;2.10;;
10894;SDS011;5500;49.886;8.074;2023-07-28T01:19:19;2.53;;;2.10;;
10894;SDS011;5500;49.886;8.074;2023-07-28T01:21:56;2.73;;;1.83;;
10894;SDS011;5500;49.886;8.074;2023-07-28T01:24:29;8.60;;;2.23;;
10894;SDS011;5500;49.886;8.074;2023-07-28T01:27:04;2.33;;;2.13;;
10894;SDS011;5500;49.886;8.074;2023-07-28T01:29:33;2.30;;;1.73;;
10894;SDS011;5500;49.886;8.074;2023-07-28T01:32:02;2.37;;;2.10;;
10894;SDS011;5500;49.886;8.074;2023-07-28T01:34:31;2.50;;;2.10;;
10894;SDS011;5500;49.886;8.074;2023-07-28T01:36:59;3.83;;;2.30;;
10894;SDS011;5500;49.886;8.074;2023-07-28T01:39:27;2.77;;;2.00;;
10894;SDS011;5500;49.886;8.074;2023-07-28T01:41:54;3.40;;;2.00;;
10894;SDS011;5500;49.886;8.074;2023-07-28T01:44:23;2.20;;;2.00;;
10894;SDS011;5500;49.886;8.074;2023-07-28T01:46:51;2.50;;;1.93;;
10894;SDS011;5500;49.886;8.074;2023-07-28T01:49:20;2.20;;;2.00;;
10894;SDS011;5500;49.886;8.074;2023-07-28T01:51:48;2.43;;;2.23;;
10894;SDS011;5500;49.886;8.074;2023-07-28T01:54:15;2.30;;;2.10;;
10894;SDS011;5500;49.886;8.074;2023-07-28T01:56:43;2.90;;;2.20;;
10894;SDS011;5500;49.886;8.074;2023-07-28T01:59:11;2.60;;;2.40;;
10894;SDS011;5500;49.886;8.074;2023-07-28T02:01:41;5.03;;;2.23;;
10894;SDS011;5500;49.886;8.074;2023-07-28T02:04:09;4.30;;;2.50;;
10894;SDS011;5500;49.886;8.074;2023-07-28T02:06:36;3.47;;;2.27;;
10894;SDS011;5500;49.886;8.074;2023-07-28T02:09:04;3.10;;;2.27;;
10894;SDS011;5500;49.886;8.074;2023-07-28T02:11:32;2.40;;;2.00;;
10894;SDS011;5500;49.886;8.074;2023-07-28T02:13:59;2.60;;;2.40;;
10894;SDS011;5500;49.886;8.074;2023-07-28T02:16:27;7.60;;;2.83;;
10894;SDS011;5500;49.886;8.074;2023-07-28T02:18:58;3.63;;;2.00;;
10894;SDS011;5500;49.886;8.074;2023-07-28T02:21:26;3.67;;;2.17;;
10894;SDS011;5500;49.886;8.074;2023-07-28T02:23:56;2.70;;;2.10;;
10894;SDS011;5500;49.886;8.074;2023-07-28T02:26:23;2.63;;;2.10;;
10894;SDS011;5500;49.886;8.074;2023-07-28T02:28:51;2.77;;;2.00;;
10894;SDS011;5500;49.886;8.074;2023-07-28T02:31:19;2.23;;;1.87;;
10894;SDS011;5500;49.886;8.074;2023-07-28T02:33:46;2.70;;;2.40;;
10894;SDS011;5500;49.886;8.074;2023-07-28T02:36:15;3.60;;;1.67;;
10894;SDS011;5500;49.886;8.074;2023-07-28T02:38:43;2.10;;;1.90;;
10894;SDS011;5500;49.886;8.074;2023-07-28T02:41:11;2.60;;;1.77;;
10894;SDS011;5500;49.886;8.074;2023-07-28T02:43:38;3.30;;;2.00;;
10894;SDS011;5500;49.886;8.074;2023-07-28T02:46:06;2.57;;;2.37;;
10894;SDS011;5500;49.886;8.074;2023-07-28T02:48:34;2.63;;;2.03;;
10894;SDS011;5500;49.886;8.074;2023-07-28T02:51:01;1.60;;;1.50;;
10894;SDS011;5500;49.886;8.074;2023-07-28T02:53:30;2.73;;;1.70;;
10894;SDS011;5500;49.886;8.074;2023-07-28T02:55:58;1.80;;;1.60;;
10894;SDS011;5500;49.886;8.074;2023-07-28T02:58:26;2.23;;;1.70;;
10894;SDS011;5500;49.886;8.074;2023-07-28T03:00:54;2.80;;;1.60;;
10894;SDS011;5500;49.886;8.074;2023-07-28T03:03:21;2.80;;;1.50;;
10894;SDS011;5500;49.886;8.074;2023-07-28T03:05:51;1.73;;;1.60;;
10894;SDS011;5500;49.886;8.074;2023-07-28T03:08:20;1.83;;;1.47;;
10894;SDS011;5500;49.886;8.074;2023-07-28T03:10:49;1.93;;;1.80;;
10894;SDS011;5500;49.886;8.074;2023-07-28T03:13:17;2.37;;;1.43;;
10894;SDS011;5500;49.886;8.074;2023-07-28T03:15:44;1.60;;;1.50;;
10894;SDS011;5500;49.886;8.074;2023-07-28T03:18:12;2.30;;;1.50;;
10894;SDS011;5500;49.886;8.074;2023-07-28T03:20:39;4.87;;;1.90;;
10894;SDS011;5500;49.886;8.074;2023-07-28T03:23:07;1.50;;;1.30;;
10894;SDS011;5500;49.886;8.074;2023-07-28T03:25:35;2.33;;;1.40;;
10894;SDS011;5500;49.886;8.074;2023-07-28T03:28:04;2.07;;;1.60;;
10894;SDS011;5500;49.886;8.074;2023-07-28T03:30:31;1.80;;;1.70;;
10894;SDS011;5500;49.886;8.074;2023-07-28T03:32:59;1.60;;;1.50;;
10894;SDS011;5500;49.886;8.074;2023-07-28T03:35:27;3.43;;;1.63;;
10894;SDS011;5500;49.886;8.074;2023-07-28T03:37:55;4.80;;;1.53;;
10894;SDS011;5500;49.886;8.074;2023-07-28T03:40:23;3.00;;;1.60;;
10894;SDS011;5500;49.886;8.074;2023-07-28T03:42:51;2.17;;;1.70;;
10894;SDS011;5500;49.886;8.074;2023-07-28T03:45:20;2.23;;;1.90;;
10894;SDS011;5500;49.886;8.074;2023-07-28T03:47:48;2.70;;;1.87;;
10894;SDS011;5500;49.886;8.074;2023-07-28T03:50:15;2.13;;;1.70;;
10894;SDS011;5500;49.886;8.074;2023-07-28T03:52:43;2.43;;;1.90;;
10894;SDS011;5500;49.886;8.074;2023-07-28T03:55:11;2.13;;;1.60;;
10894;SDS011;5500;49.886;8.074;2023-07-28T03:57:39;2.70;;;1.70;;
10894;SDS011;5500;49.886;8.074;2023-07-28T04:00:07;1.60;;;1.50;;
10894;SDS011;5500;49.886;8.074;2023-07-28T04:02:36;1.90;;;1.60;;
10894;SDS011;5500;49.886;8.074;2023-07-28T04:05:04;2.97;;;1.93;;
10894;SDS011;5500;49.886;8.074;2023-07-28T04:07:32;2.93;;;2.00;;
10894;SDS011;5500;49.886;8.074;2023-07-28T04:10:00;4.23;;;1.80;;
10894;SDS011;5500;49.886;8.074;2023-07-28T04:12:28;1.80;;;1.70;;
10894;SDS011;5500;49.886;8.074;2023-07-28T04:14:55;2.20;;;2.00;;
10894;SDS011;5500;49.886;8.074;2023-07-28T04:17:23;1.63;;;1.53;;
10894;SDS011;5500;49.886;8.074;2023-07-28T04:19:54;2.10;;;1.90;;
10894;SDS011;5500;49.886;8.074;2023-07-28T04:22:22;1.90;;;1.80;;
10894;SDS011;5500;49.886;8.074;2023-07-28T04:24:50;2.53;;;1.80;;
10894;SDS011;5500;49.886;8.074;2023-07-28T04:27:18;2.10;;;1.90;;
10894;SDS011;5500;49.886;8.074;2023-07-28T04:29:45;1.80;;;1.70;;
10894;SDS011;5500;49.886;8.074;2023-07-28T04:32:13;1.97;;;1.80;;
10894;SDS011;5500;49.886;8.074;2023-07-28T04:34:40;2.30;;;2.10;;
10894;SDS011;5500;49.886;8.074;2023-07-28T04:37:09;2.43;;;2.10;;
10894;SDS011;5500;49.886;8.074;2023-07-28T04:39:37;5.03;;;1.90;;
10894;SDS011;5500;49.886;8.074;2023-07-28T04:42:05;4.43;;;1.67;;
10894;SDS011;5500;49.886;8.074;2023-07-28T04:44:33;2.13;;;1.77;;
10894;SDS011;5500;49.886;8.074;2023-07-28T04:47:00;1.80;;;1.70;;
10894;SDS011;5500;49.886;8.074;2023-07-28T04:49:28;2.00;;;1.83;;
10894;SDS011;5500;49.886;8.074;2023-07-28T04:51:56;1.90;;;1.67;;
10894;SDS011;5500;49.886;8.074;2023-07-28T04:54:25;1.73;;;1.60;;
10894;SDS011;5500;49.886;8.074;2023-07-28T04:56:52;2.13;;;1.40;;
10894;SDS011;5500;49.886;8.074;2023-07-28T04:59:20;1.97;;;1.77;;
10894;SDS011;5500;49.886;8.074;2023-07-28T05:01:47;2.23;;;1.57;;
10894;SDS011;5500;49.886;8.074;2023-07-28T05:04:15;1.97;;;1.77;;
10894;SDS011;5500;49.886;8.074;2023-07-28T05:06:43;5.53;;;2.03;;
10894;SDS011;5500;49.886;8.074;2023-07-28T05:09:10;1.70;;;1.50;;
10894;SDS011;5500;49.886;8.074;2023-07-28T05:11:40;1.63;;;1.50;;
10894;SDS011;5500;49.886;8.074;2023-07-28T05:14:07;3.40;;;1.70;;
10894;SDS011;5500;49.886;8.074;2023-07-28T05:16:35;4.43;;;1.60;;
10894;SDS011;5500;49.886;8.074;2023-07-28T05:19:06;1.13;;;1.10;;
10894;SDS011;5500;49.886;8.074;2023-07-28T05:21:35;2.83;;;1.70;;
10894;SDS011;5500;49.886;8.074;2023-07-28T05:24:02;3.37;;;1.60;;
10894;SDS011;5500;49.886;8.074;2023-07-28T05:26:30;2.23;;;1.43;;
10894;SDS011;5500;49.886;8.074;2023-07-28T05:28:59;1.23;;;1.20;;
10894;SDS011;5500;49.886;8.074;2023-07-28T05:31:27;1.50;;;1.40;;
10894;SDS011;5500;49.886;8.074;2023-07-28T05:33:55;1.83;;;1.10;;
10894;SDS011;5500;49.886;8.074;2023-07-28T05:36:23;1.30;;;1.20;;
10894;SDS011;5500;49.886;8.074;2023-07-28T05:38:54;1.17;;;1.10;;
10894;SDS011;5500;49.886;8.074;2023-07-28T05:41:22;1.50;;;1.40;;
10894;SDS011;5500;49.886;8.074;2023-07-28T05:43:51;3.23;;;1.30;;
10894;SDS011;5500;49.886;8.074;2023-07-28T05:46:20;2.17;;;1.30;;
10894;SDS011;5500;49.886;8.074;2023-07-28T05:48:47;2.37;;;1.33;;
10894;SDS011;5500;49.886;8.074;2023-07-28T05:51:15;2.67;;;1.27;;
10894;SDS011;5500;49.886;8.074;2023-07-28T05:53:43;4.43;;;1.67;;
10894;SDS011;5500;49.886;8.074;2023-07-28T05:56:11;1.93;;;1.40;;
10894;SDS011;5500;49.886;8.074;2023-07-28T05:58:39;1.40;;;1.30;;
10894;SDS011;5500;49.886;8.074;2023-07-28T06:01:07;2.03;;;1.30;;
10894;SDS011;5500;49.886;8.074;2023-07-28T06:03:36;2.53;;;1.00;;
10894;SDS011;5500;49.886;8.074;2023-07-28T06:06:03;1.30;;;1.17;;
10894;SDS011;5500;49.886;8.074;2023-07-28T06:08:31;1.23;;;1.00;;
10894;SDS011;5500;49.886;8.074;2023-07-28T06:10:59;1.43;;;0.93;;
10894;SDS011;5500;49.886;8.074;2023-07-28T06:13:27;0.77;;;0.67;;
10894;SDS011;5500;49.886;8.074;2023-07-28T06:15:56;0.90;;;0.90;;
10894;SDS011;5500;49.886;8.074;2023-07-28T06:18:24;0.90;;;0.90;;
10894;SDS011;5500;49.886;8.074;2023-07-28T06:20:53;0.97;;;0.97;;
10894;SDS011;5500;49.886;8.074;2023-07-28T06:23:21;4.47;;;1.00;;
10894;SDS011;5500;49.886;8.074;2023-07-28T06:25:49;1.07;;;1.00;;
10894;SDS011;5500;49.886;8.074;2023-07-28T06:28:16;1.80;;;1.03;;
10894;SDS011;5500;49.886;8.074;2023-07-28T06:30:44;2.47;;;1.00;;
10894;SDS011;5500;49.886;8.074;2023-07-28T06:33:12;4.00;;;0.90;;
10894;SDS011;5500;49.886;8.074;2023-07-28T06:35:40;1.60;;;0.87;;
10894;SDS011;5500;49.886;8.074;2023-07-28T06:38:09;0.90;;;0.90;;
10894;SDS011;5500;49.886;8.074;2023-07-28T06:40:37;1.23;;;0.80;;
10894;SDS011;5500;49.886;8.074;2023-07-28T06:43:04;1.27;;;0.73;;
10894;SDS011;5500;49.886;8.074;2023-07-28T06:45:33;0.73;;;0.60;;
10894;SDS011;5500;49.886;8.074;2023-07-28T06:48:01;3.10;;;0.90;;
10894;SDS011;5500;49.886;8.074;2023-07-28T06:50:29;2.33;;;0.90;;
10894;SDS011;5500;49.886;8.074;2023-07-28T06:52:58;1.70;;;1.17;;
10894;SDS011;5500;49.886;8.074;2023-07-28T06:55:27;0.80;;;0.80;;
10894;SDS011;5500;49.886;8.074;2023-07-28T06:57:54;0.90;;;0.90;;
10894;SDS011;5500;49.886;8.074;2023-07-28T07:00:22;0.80;;;0.80;;
10894;SDS011;5500;49.886;8.074;2023-07-28T07:02:50;0.67;;;0.67;;
10894;SDS011;5500;49.886;8.074;2023-07-28T07:05:18;1.60;;;0.63;;
10894;SDS011;5500;49.886;8.074;2023-07-28T07:07:45;1.60;;;0.80;;
10894;SDS011;5500;49.886;8.074;2023-07-28T07:10:13;0.83;;;0.67;;
10894;SDS011;5500;49.886;8.074;2023-07-28T07:12:42;1.83;;;0.60;;
10894;SDS011;5500;49.886;8.074;2023-07-28T07:15:10;1.00;;;0.67;;
10894;SDS011;5500;49.886;8.074;2023-07-28T07:17:38;1.53;;;0.57;;
10894;SDS011;5500;49.886;8.074;2023-07-28T07:20:07;1.50;;;0.70;;
10894;SDS011;5500;49.886;8.074;2023-07-28T07:22:36;0.70;;;0.70;;
10894;SDS011;5500;49.886;8.074;2023-07-28T07:25:04;0.63;;;0.60;;
10894;SDS011;5500;49.886;8.074;2023-07-28T07:27:33;1.53;;;0.63;;
10894;SDS011;5500;49.886;8.074;2023-07-28T07:30:02;0.60;;;0.60;;
10894;SDS011;5500;49.886;8.074;2023-07-28T07:32:32;1.00;;;0.80;;
10894;SDS011;5500;49.886;8.074;2023-07-28T07:35:00;0.60;;;0.60;;
10894;SDS011;5500;49.886;8.074;2023-07-28T07:37:28;1.60;;;0.60;;
10894;SDS011;5500;49.886;8.074;2023-07-28T07:39:58;0.97;;;0.60;;
10894;SDS011;5500;49.886;8.074;2023-07-28T07:42:28;0.50;;;0.50;;
10894;SDS011;5500;49.886;8.074;2023-07-28T07:44:55;0.70;;;0.70;;
10894;SDS011;5500;49.886;8.074;2023-07-28T07:47:25;0.60;;;0.60;;
10894;SDS011;5500;49.886;8.074;2023-07-28T07:49:53;0.80;;;0.80;;
10894;SDS011;5500;49.886;8.074;2023-07-28T07:52:21;0.60;;;0.60;;
10894;SDS011;5500;49.886;8.074;2023-07-28T07:54:49;1.37;;;0.67;;
10894;SDS011;5500;49.886;8.074;2023-07-28T07:57:17;0.70;;;0.70;;
10894;SDS011;5500;49.886;8.074;2023-07-28T07:59:47;0.70;;;0.57;;
10894;SDS011;5500;49.886;8.074;2023-07-28T08:02:15;0.63;;;0.63;;
10894;SDS011;5500;49.886;8.074;2023-07-28T08:04:44;3.90;;;0.80;;
10894;SDS011;5500;49.886;8.074;2023-07-28T08:07:12;1.87;;;0.80;;
10894;SDS011;5500;49.886;8.074;2023-07-28T08:09:42;1.33;;;0.70;;
10894;SDS011;5500;49.886;8.074;2023-07-28T08:12:10;1.50;;;0.77;;
10894;SDS011;5500;49.886;8.074;2023-07-28T08:14:39;1.03;;;0.70;;
10894;SDS011;5500;49.886;8.074;2023-07-28T08:17:08;0.93;;;0.63;;
10894;SDS011;5500;49.886;8.074;2023-07-28T08:19:35;2.30;;;0.80;;
10894;SDS011;5500;49.886;8.074;2023-07-28T08:22:05;0.60;;;0.60;;
10894;SDS011;5500;49.886;8.074;2023-07-28T08:24:33;0.53;;;0.53;;
10894;SDS011;5500;49.886;8.074;2023-07-28T08:27:01;0.43;;;0.37;;
10894;SDS011;5500;49.886;8.074;2023-07-28T08:29:28;2.10;;;0.57;;
10894;SDS011;5500;49.886;8.074;2023-07-28T08:31:56;0.70;;;0.70;;
10894;SDS011;5500;49.886;8.074;2023-07-28T08:34:24;2.33;;;0.70;;
10894;SDS011;5500;49.886;8.074;2023-07-28T08:36:52;1.83;;;0.50;;
10894;SDS011;5500;49.886;8.074;2023-07-28T08:39:21;0.70;;;0.70;;
10894;SDS011;5500;49.886;8.074;2023-07-28T08:41:57;0.60;;;0.60;;
10894;SDS011;5500;49.886;8.074;2023-07-28T08:44:25;0.60;;;0.60;;
10894;SDS011;5500;49.886;8.074;2023-07-28T08:46:53;1.43;;;0.90;;
10894;SDS011;5500;49.886;8.074;2023-07-28T08:49:21;1.10;;;0.70;;
10894;SDS011;5500;49.886;8.074;2023-07-28T08:51:49;1.30;;;0.70;;
10894;SDS011;5500;49.886;8.074;2023-07-28T08:54:17;0.60;;;0.60;;
10894;SDS011;5500;49.886;8.074;2023-07-28T08:56:47;0.73;;;0.73;;
10894;SDS011;5500;49.886;8.074;2023-07-28T08:59:20;0.87;;;0.80;;
10894;SDS011;5500;49.886;8.074;2023-07-28T09:01:49;2.30;;;0.70;;
10894;SDS011;5500;49.886;8.074;2023-07-28T09:04:19;0.80;;;0.70;;
10894;SDS011;5500;49.886;8.074;2023-07-28T09:06:47;1.43;;;0.80;;
10894;SDS011;5500;49.886;8.074;2023-07-28T09:09:16;0.97;;;0.90;;
10894;SDS011;5500;49.886;8.074;2023-07-28T09:11:45;0.70;;;0.70;;
10894;SDS011;5500;49.886;8.074;2023-07-28T09:14:16;1.13;;;0.80;;
10894;SDS011;5500;49.886;8.074;2023-07-28T09:16:45;1.90;;;0.87;;
10894;SDS011;5500;49.886;8.074;2023-07-28T09:19:13;0.80;;;0.80;;
10894;SDS011;5500;49.886;8.074;2023-07-28T09:21:42;3.90;;;0.80;;
10894;SDS011;5500;49.886;8.074;2023-07-28T09:24:11;1.10;;;1.00;;
10894;SDS011;5500;49.886;8.074;2023-07-28T09:26:40;1.23;;;0.90;;
10894;SDS011;5500;49.886;8.074;2023-07-28T09:29:14;1.07;;;0.87;;
10894;SDS011;5500;49.886;8.074;2023-07-28T09:31:42;0.80;;;0.80;;
10894;SDS011;5500;49.886;8.074;2023-07-28T09:34:11;0.70;;;0.70;;
10894;SDS011;5500;49.886;8.074;2023-07-28T09:36:39;0.63;;;0.63;;
10894;SDS011;5500;49.886;8.074;2023-07-28T09:39:08;0.80;;;0.80;;
10894;SDS011;5500;49.886;8.074;2023-07-28T09:41:35;0.90;;;0.90;;
10894;SDS011;5500;49.886;8.074;2023-07-28T09:44:04;1.00;;;1.00;;
10894;SDS011;5500;49.886;8.074;2023-07-28T09:46:34;1.07;;;0.90;;
10894;SDS011;5500;49.886;8.074;2023-07-28T09:49:04;1.77;;;0.70;;
10894;SDS011;5500;49.886;8.074;2023-07-28T09:51:33;0.67;;;0.67;;
10894;SDS011;5500;49.886;8.074;2023-07-28T09:54:03;0.80;;;0.80;;
10894;SDS011;5500;49.886;8.074;2023-07-28T09:56:32;1.73;;;0.93;;
10894;SDS011;5500;49.886;8.074;2023-07-28T09:59:01;1.00;;;1.00;;
10894;SDS011;5500;49.886;8.074;2023-07-28T10:01:30;1.30;;;1.20;;
10894;SDS011;5500;49.886;8.074;2023-07-28T10:03:59;1.20;;;1.10;;
10894;SDS011;5500;49.886;8.074;2023-07-28T10:06:27;2.00;;;1.10;;
10894;SDS011;5500;49.886;8.074;2023-07-28T10:08:56;1.70;;;1.13;;
10894;SDS011;5500;49.886;8.074;2023-07-28T10:11:24;0.90;;;0.90;;
10894;SDS011;5500;49.886;8.074;2023-07-28T10:13:52;1.60;;;0.97;;
10894;SDS011;5500;49.886;8.074;2023-07-28T10:16:29;3.57;;;1.10;;
10894;SDS011;5500;49.886;8.074;2023-07-28T10:18:59;5.38;;;1.30;;
10894;SDS011;5500;49.886;8.074;2023-07-28T10:21:28;1.23;;;1.10;;
10894;SDS011;5500;49.886;8.074;2023-07-28T10:23:58;1.70;;;1.10;;
10894;SDS011;5500;49.886;8.074;2023-07-28T10:26:36;6.00;;;1.47;;
10894;SDS011;5500;49.886;8.074;2023-07-28T10:29:12;2.33;;;1.50;;
10894;SDS011;5500;49.886;8.074;2023-07-28T10:31:51;1.83;;;1.17;;
10894;SDS011;5500;49.886;8.074;2023-07-28T10:34:22;2.57;;;1.40;;
10894;SDS011;5500;49.886;8.074;2023-07-28T10:36:56;3.07;;;1.30;;
10894;SDS011;5500;49.886;8.074;2023-07-28T10:39:26;1.87;;;1.10;;
10894;SDS011;5500;49.886;8.074;2023-07-28T10:42:00;2.30;;;1.30;;
10894;SDS011;5500;49.886;8.074;2023-07-28T10:44:30;1.73;;;1.40;;
10894;SDS011;5500;49.886;8.074;2023-07-28T10:46:58;2.87;;;1.40;;
10894;SDS011;5500;49.886;8.074;2023-07-28T10:49:28;2.10;;;1.63;;
10894;SDS011;5500;49.886;8.074;2023-07-28T10:51:56;1.80;;;1.67;;
10894;SDS011;5500;49.886;8.074;2023-07-28T10:54:24;1.60;;;1.50;;
10894;SDS011;5500;49.886;8.074;2023-07-28T10:56:51;1.50;;;1.40;;
10894;SDS011;5500;49.886;8.074;2023-07-28T10:59:19;1.67;;;1.53;;
10894;SDS011;5500;49.886;8.074;2023-07-28T11:01:47;3.80;;;1.60;;
10894;SDS011;5500;49.886;8.074;2023-07-28T11:04:16;1.57;;;1.47;;
10894;SDS011;5500;49.886;8.074;2023-07-28T11:06:48;1.50;;;1.40;;
10894;SDS011;5500;49.886;8.074;2023-07-28T11:09:17;1.63;;;1.53;;
10894;SDS011;5500;49.886;8.074;2023-07-28T11:11:46;1.70;;;1.60;;
10894;SDS011;5500;49.886;8.074;2023-07-28T11:14:15;2.10;;;1.30;;
10894;SDS011;5500;49.886;8.074;2023-07-28T11:16:44;1.80;;;1.70;;
10894;SDS011;5500;49.886;8.074;2023-07-28T11:19:15;1.73;;;1.63;;
10894;SDS011;5500;49.886;8.074;2023-07-28T11:21:45;1.80;;;1.70;;
10894;SDS011;5500;49.886;8.074;2023-07-28T11:24:18;2.03;;;1.93;;
10894;SDS011;5500;49.886;8.074;2023-07-28T11:26:46;1.83;;;1.73;;
10894;SDS011;5500;49.886;8.074;2023-07-28T11:29:14;2.47;;;1.87;;
10894;SDS011;5500;49.886;8.074;2023-07-28T11:31:42;2.43;;;2.27;;
10894;SDS011;5500;49.886;8.074;2023-07-28T11:34:12;2.87;;;2.60;;
10894;SDS011;5500;49.886;8.074;2023-07-28T11:36:41;2.30;;;2.20;;
10894;SDS011;5500;49.886;8.074;2023-07-28T11:39:11;2.30;;;2.10;;
10894;SDS011;5500;49.886;8.074;2023-07-28T11:41:39;2.80;;;2.50;;
10894;SDS011;5500;49.886;8.074;2023-07-28T11:44:07;3.47;;;2.63;;
10894;SDS011;5500;49.886;8.074;2023-07-28T11:46:36;2.97;;;2.33;;
10894;SDS011;5500;49.886;8.074;2023-07-28T11:49:09;4.17;;;2.00;;
10894;SDS011;5500;49.886;8.074;2023-07-28T11:51:41;2.97;;;1.90;;
10894;SDS011;5500;49.886;8.074;2023-07-28T11:54:12;2.87;;;1.77;;
10894;SDS011;5500;49.886;8.074;2023-07-28T11:56:41;2.27;;;2.07;;
10894;SDS011;5500;49.886;8.074;2023-07-28T11:59:10;1.80;;;1.70;;
10894;SDS011;5500;49.886;8.074;2023-07-28T12:01:51;1.80;;;1.63;;
10894;SDS011;5500;49.886;8.074;2023-07-28T12:04:23;3.43;;;1.63;;
10894;SDS011;5500;49.886;8.074;2023-07-28T12:07:01;1.97;;;1.60;;
10894;SDS011;5500;49.886;8.074;2023-07-28T12:09:36;1.83;;;1.73;;
10894;SDS011;5500;49.886;8.074;2023-07-28T12:12:21;2.37;;;2.00;;
10894;SDS011;5500;49.886;8.074;2023-07-28T12:14:51;1.80;;;1.70;;
10894;SDS011;5500;49.886;8.074;2023-07-28T12:17:22;2.33;;;1.80;;
10894;SDS011;5500;49.886;8.074;2023-07-28T12:20:12;2.07;;;1.97;;
10894;SDS011;5500;49.886;8.074;2023-07-28T12:22:42;3.07;;;2.00;;
10894;SDS011;5500;49.886;8.074;2023-07-28T12:25:11;2.50;;;1.70;;
10894;SDS011;5500;49.886;8.074;2023-07-28T12:27:39;1.97;;;1.87;;
10894;SDS011;5500;49.886;8.074;2023-07-28T12:30:07;2.40;;;2.20;;
10894;SDS011;5500;49.886;8.074;2023-07-28T12:32:38;1.93;;;1.83;;
10894;SDS011;5500;49.886;8.074;2023-07-28T12:35:26;1.83;;;1.73;;
10894;SDS011;5500;49.886;8.074;2023-07-28T12:38:00;1.77;;;1.67;;
10894;SDS011;5500;49.886;8.074;2023-07-28T12:40:52;1.50;;;1.40;;
10894;SDS011;5500;49.886;8.074;2023-07-28T12:43:23;1.63;;;1.50;;
10894;SDS011;5500;49.886;8.074;2023-07-28T12:45:55;1.50;;;1.40;;
10894;SDS011;5500;49.886;8.074;2023-07-28T12:48:25;2.60;;;1.67;;
10894;SDS011;5500;49.886;8.074;2023-07-28T12:50:53;2.50;;;1.50;;
10894;SDS011;5500;49.886;8.074;2023-07-28T12:53:24;1.40;;;1.30;;
10894;SDS011;5500;49.886;8.074;2023-07-28T12:55:53;1.63;;;0.90;;
10894;SDS011;5500;49.886;8.074;2023-07-28T12:58:24;1.23;;;1.13;;
10894;SDS011;5500;49.886;8.074;2023-07-28T13:00:54;2.07;;;1.07;;
10894;SDS011;5500;49.886;8.074;2023-07-28T13:03:27;3.37;;;1.40;;
10894;SDS011;5500;49.886;8.074;2023-07-28T13:05:54;3.10;;;2.00;;
10894;SDS011;5500;49.886;8.074;2023-07-28T13:08:22;1.90;;;1.80;;
10894;SDS011;5500;49.886;8.074;2023-07-28T13:10:54;3.00;;;2.10;;
10894;SDS011;5500;49.886;8.074;2023-07-28T13:13:25;2.53;;;2.10;;
10894;SDS011;5500;49.886;8.074;2023-07-28T13:15:55;1.97;;;1.87;;
10894;SDS011;5500;49.886;8.074;2023-07-28T13:18:23;2.35;;;2.15;;
10894;SDS011;5500;49.886;8.074;2023-07-28T13:20:51;8.30;;;2.00;;
10894;SDS011;5500;49.886;8.074;2023-07-28T13:23:19;1.80;;;1.70;;
10894;SDS011;5500;49.886;8.074;2023-07-28T13:25:46;1.90;;;1.80;;
10894;SDS011;5500;49.886;8.074;2023-07-28T13:28:15;1.87;;;1.70;;
10894;SDS011;5500;49.886;8.074;2023-07-28T13:30:43;1.80;;;1.70;;
10894;SDS011;5500;49.886;8.074;2023-07-28T13:33:11;1.87;;;1.77;;
10894;SDS011;5500;49.886;8.074;2023-07-28T13:35:39;2.87;;;1.50;;
10894;SDS011;5500;49.886;8.074;2023-07-28T13:38:06;1.40;;;1.30;;
10894;SDS011;5500;49.886;8.074;2023-07-28T13:40:34;1.97;;;1.53;;
10894;SDS011;5500;49.886;8.074;2023-07-28T13:43:04;1.67;;;1.57;;
10894;SDS011;5500;49.886;8.074;2023-07-28T13:45:33;1.90;;;1.63;;
10894;SDS011;5500;49.886;8.074;2023-07-28T13:48:01;1.93;;;1.70;;
10894;SDS011;5500;49.886;8.074;2023-07-28T13:50:29;1.47;;;1.37;;
10894;SDS011;5500;49.886;8.074;2023-07-28T13:53:00;1.47;;;1.37;;
10894;SDS011;5500;49.886;8.074;2023-07-28T13:55:48;1.73;;;1.60;;
10894;SDS011;5500;49.886;8.074;2023-07-28T13:58:23;2.07;;;1.67;;
10894;SDS011;5500;49.886;8.074;2023-07-28T14:00:52;1.40;;;1.30;;
10894;SDS011;5500;49.886;8.074;2023-07-28T14:03:20;1.60;;;1.50;;
10894;SDS011;5500;49.886;8.074;2023-07-28T14:05:48;1.77;;;1.67;;
10894;SDS011;5500;49.886;8.074;2023-07-28T14:08:16;1.70;;;1.60;;
10894;SDS011;5500;49.886;8.074;2023-07-28T14:10:44;1.60;;;1.50;;
10894;SDS011;5500;49.886;8.074;2023-07-28T14:13:12;1.83;;;1.60;;
10894;SDS011;5500;49.886;8.074;2023-07-28T14:15:41;1.83;;;1.73;;
10894;SDS011;5500;49.886;8.074;2023-07-28T14:18:11;3.17;;;2.43;;
10894;SDS011;5500;49.886;8.074;2023-07-28T14:20:39;2.27;;;2.17;;
10894;SDS011;5500;49.886;8.074;2023-07-28T14:23:20;3.87;;;2.13;;
10894;SDS011;5500;49.886;8.074;2023-07-28T14:25:49;2.37;;;2.17;;
10894;SDS011;5500;49.886;8.074;2023-07-28T14:28:17;2.20;;;2.00;;
10894;SDS011;5500;49.886;8.074;2023-07-28T14:30:46;1.30;;;1.20;;
10894;SDS011;5500;49.886;8.074;2023-07-28T14:33:16;4.13;;;1.37;;
10894;SDS011;5500;49.886;8.074;2023-07-28T14:35:45;1.17;;;1.07;;
10894;SDS011;5500;49.886;8.074;2023-07-28T14:38:17;1.27;;;1.20;;
10894;SDS011;5500;49.886;8.074;2023-07-28T14:40:46;5.00;;;1.30;;
10894;SDS011;5500;49.886;8.074;2023-07-28T14:43:16;1.30;;;1.20;;
10894;SDS011;5500;49.886;8.074;2023-07-28T14:45:44;1.30;;;1.13;;
10894;SDS011;5500;49.886;8.074;2023-07-28T14:48:12;1.03;;;1.03;;
10894;SDS011;5500;49.886;8.074;2023-07-28T14:50:42;1.50;;;1.00;;
10894;SDS011;5500;49.886;8.074;2023-07-28T14:53:29;2.57;;;1.20;;
10894;SDS011;5500;49.886;8.074;2023-07-28T14:56:01;1.13;;;1.10;;
10894;SDS011;5500;49.886;8.074;2023-07-28T14:58:29;1.20;;;1.10;;
10894;SDS011;5500;49.886;8.074;2023-07-28T15:00:58;1.10;;;1.10;;
10894;SDS011;5500;49.886;8.074;2023-07-28T15:03:27;0.93;;;0.93;;
10894;SDS011;5500;49.886;8.074;2023-07-28T15:05:59;1.17;;;1.13;;
10894;SDS011;5500;49.886;8.074;2023-07-28T15:08:28;1.13;;;1.03;;
10894;SDS011;5500;49.886;8.074;2023-07-28T15:10:57;1.10;;;1.00;;